createdAt,value
2019-04-25T00:01:26.810Z,7.07
2019-04-25T00:03:57.291Z,7.13
2019-04-25T00:06:29.875Z,7.10
2019-04-25T00:09:01.904Z,6.43
2019-04-25T00:11:34.779Z,6.93
2019-04-25T00:14:06.749Z,6.80
2019-04-25T00:16:39.489Z,6.47
2019-04-25T00:19:11.662Z,7.13
2019-04-25T00:22:02.019Z,6.53
2019-04-25T00:24:42.969Z,6.70
2019-04-25T00:27:13.529Z,6.70
2019-04-25T00:29:45.718Z,6.83
2019-04-25T00:32:16.291Z,6.93
2019-04-25T00:34:46.939Z,7.13
2019-04-25T00:37:17.413Z,6.60
2019-04-25T00:39:47.887Z,7.20
2019-04-25T00:42:18.283Z,6.60
2019-04-25T00:44:49.587Z,6.70
2019-04-25T00:47:21.578Z,7.00
2019-04-25T00:49:53.213Z,6.77
2019-04-25T00:52:23.736Z,7.00
2019-04-25T00:54:54.304Z,7.30
2019-04-25T00:57:25.299Z,6.80
2019-04-25T01:00:11.607Z,6.47
2019-04-25T01:02:45.710Z,6.63
2019-04-25T01:05:16.192Z,6.30
2019-04-25T01:07:47.705Z,6.93
2019-04-25T01:10:18.389Z,6.87
2019-04-25T01:12:48.846Z,7.00
2019-04-25T01:15:21.445Z,6.60
2019-04-25T01:17:52.594Z,6.90
2019-04-25T01:20:24.040Z,6.93
2019-04-25T01:22:56.944Z,7.17
2019-04-25T01:25:38.357Z,6.73
2019-04-25T01:27:58.777Z,6.60
2019-04-25T01:30:29.419Z,6.73
2019-04-25T01:32:59.853Z,6.93
2019-04-25T01:35:49.376Z,6.27
2019-04-25T01:38:34.882Z,6.73
2019-04-25T01:41:24.714Z,6.83
2019-04-25T01:43:59.674Z,6.73
2019-04-25T01:46:30.464Z,6.73
2019-04-25T01:49:00.904Z,6.77
2019-04-25T01:51:31.613Z,6.77
2019-04-25T01:54:02.036Z,6.37
2019-04-25T01:56:33.260Z,5.97
2019-04-25T01:59:03.996Z,6.73
2019-04-25T02:01:35.603Z,6.90
2019-04-25T02:04:06.076Z,6.83
2019-04-25T02:06:36.951Z,7.00
2019-04-25T02:09:10.469Z,6.73
2019-04-25T02:11:58.930Z,6.80
2019-04-25T02:14:29.644Z,6.73
2019-04-25T02:17:00.378Z,6.53
2019-04-25T02:19:31.013Z,7.30
2019-04-25T02:22:02.474Z,7.03
2019-04-25T02:24:33.978Z,6.63
2019-04-25T02:27:04.756Z,7.13
2019-04-25T02:29:35.291Z,6.40
2019-04-25T02:32:08.936Z,6.73
2019-04-25T02:34:38.887Z,6.67
2019-04-25T02:37:09.778Z,7.43
2019-04-25T02:39:50.182Z,7.27
2019-04-25T02:42:21.363Z,7.23
2019-04-25T02:45:02.304Z,7.23
2019-04-25T02:47:50.738Z,7.67
2019-04-25T02:50:37.899Z,7.17
2019-04-25T02:53:34.483Z,7.00
2019-04-25T02:56:25.728Z,7.17
2019-04-25T02:58:37.704Z,7.77
2019-04-25T03:01:19.534Z,7.67
2019-04-25T03:03:45.088Z,7.40
2019-04-25T03:06:15.625Z,6.90
2019-04-25T03:08:46.243Z,7.37
2019-04-25T03:11:17.963Z,7.47
2019-04-25T03:13:48.582Z,7.80
2019-04-25T03:16:19.635Z,7.63
2019-04-25T03:22:00.272Z,7.27
2019-04-25T03:24:30.750Z,7.70
2019-04-25T03:27:01.417Z,7.80
2019-04-25T03:29:34.214Z,7.47
2019-04-25T03:32:09.291Z,7.10
2019-04-25T03:34:37.031Z,7.43
2019-04-25T03:37:07.754Z,7.27
2019-04-25T03:39:38.376Z,7.87
2019-04-25T03:42:09.850Z,7.33
2019-04-25T03:44:40.615Z,7.70
2019-04-25T03:47:11.590Z,7.57
2019-04-25T03:49:43.334Z,7.43
2019-04-25T03:52:14.278Z,8.57
2019-04-25T03:54:46.110Z,7.77
2019-04-25T03:57:16.529Z,8.10
2019-04-25T03:59:48.055Z,7.50
2019-04-25T04:02:18.770Z,8.03
2019-04-25T04:04:49.277Z,7.70
2019-04-25T04:07:20.059Z,7.93
2019-04-25T04:09:50.748Z,8.23
2019-04-25T04:12:24.163Z,7.80
2019-04-25T04:14:54.891Z,8.70
2019-04-25T04:17:50.631Z,8.47
2019-04-25T04:20:46.246Z,8.07
2019-04-25T04:23:25.150Z,8.03
2019-04-25T04:25:55.583Z,8.33
2019-04-25T04:28:26.203Z,8.07
2019-04-25T04:30:56.756Z,8.93
2019-04-25T04:33:32.863Z,8.07
2019-04-25T04:36:03.864Z,9.20
2019-04-25T04:38:34.857Z,8.93
2019-04-25T04:41:05.280Z,8.87
2019-04-25T04:43:36.225Z,8.50
2019-04-25T04:46:07.916Z,8.87
2019-04-25T04:48:39.639Z,9.33
2019-04-25T04:51:10.552Z,9.40
2019-04-25T04:53:41.219Z,8.80
2019-04-25T04:56:11.978Z,8.90
2019-04-25T04:58:43.164Z,9.17
2019-04-25T05:01:15.870Z,9.67
2019-04-25T05:04:18.056Z,9.73
2019-04-25T05:07:03.650Z,9.37
2019-04-25T05:09:34.142Z,9.10
2019-04-25T05:12:05.058Z,8.37
2019-04-25T05:14:35.812Z,9.20
2019-04-25T05:17:06.286Z,8.90
2019-04-25T05:19:36.850Z,9.50
2019-04-25T05:22:07.547Z,8.70
2019-04-25T05:24:38.326Z,7.97
2019-04-25T05:27:08.980Z,8.03
2019-04-25T05:29:39.546Z,8.90
2019-04-25T05:32:10.395Z,8.27
2019-04-25T05:34:40.877Z,7.93
2019-04-25T05:37:11.302Z,8.03
2019-04-25T05:39:43.389Z,8.80
2019-04-25T05:42:23.022Z,9.50
2019-04-25T05:44:56.197Z,8.80
2019-04-25T05:47:27.209Z,8.80
2019-04-25T05:49:57.696Z,8.40
2019-04-25T05:52:28.348Z,7.83
2019-04-25T05:54:58.865Z,8.00
2019-04-25T05:57:29.294Z,7.70
2019-04-25T06:00:00.032Z,8.73
2019-04-25T06:02:30.605Z,7.20
2019-04-25T06:05:01.446Z,7.03
2019-04-25T06:07:33.260Z,7.50
2019-04-25T06:10:21.821Z,8.43
2019-04-25T06:13:11.322Z,7.73
2019-04-25T06:15:43.812Z,7.40
2019-04-25T06:18:43.884Z,7.93
2019-04-25T06:21:15.713Z,7.63
2019-04-25T06:24:05.245Z,7.73
2019-04-25T06:26:43.342Z,7.87
2019-04-25T06:29:13.787Z,7.33
2019-04-25T06:31:44.259Z,7.63
2019-04-25T06:34:14.969Z,7.47
2019-04-25T06:36:45.506Z,8.40
2019-04-25T06:39:16.217Z,8.80
2019-04-25T06:41:46.620Z,7.83
2019-04-25T06:44:34.613Z,7.37
2019-04-25T06:47:35.134Z,7.50
2019-04-25T06:50:06.328Z,7.97
2019-04-25T06:52:37.188Z,8.37
2019-04-25T06:55:08.268Z,8.47
2019-04-25T06:57:38.945Z,9.10
2019-04-25T07:00:11.637Z,9.03
2019-04-25T07:02:43.553Z,7.27
2019-04-25T07:05:25.794Z,7.47
2019-04-25T07:07:47.064Z,7.40
2019-04-25T07:10:17.980Z,7.93
2019-04-25T07:12:48.460Z,7.90
2019-04-25T07:15:26.949Z,6.40
2019-04-25T07:17:58.980Z,6.97
2019-04-25T07:20:30.235Z,7.30
2019-04-25T07:23:00.966Z,7.43
2019-04-25T07:25:35.765Z,7.03
2019-04-25T07:28:30.233Z,6.77
2019-04-25T07:31:13.322Z,7.33
2019-04-25T07:33:59.529Z,7.13
2019-04-25T07:36:30.999Z,7.30
2019-04-25T07:39:09.722Z,6.70
2019-04-25T07:41:38.086Z,7.57
2019-04-25T07:44:08.288Z,7.10
2019-04-25T07:46:39.907Z,7.90
2019-04-25T07:49:13.399Z,7.57
2019-04-25T07:51:45.345Z,7.83
2019-04-25T07:54:16.279Z,7.53
2019-04-25T07:56:46.931Z,6.53
2019-04-25T07:59:17.523Z,7.17
2019-04-25T08:01:48.119Z,7.10
2019-04-25T08:04:18.601Z,6.70
2019-04-25T08:06:49.237Z,6.70
2019-04-25T08:09:19.907Z,6.87
2019-04-25T08:11:50.649Z,7.37
2019-04-25T08:14:58.796Z,6.93
2019-04-25T08:17:47.446Z,7.00
2019-04-25T08:20:19.918Z,6.60
2019-04-25T08:22:58.324Z,6.17
2019-04-25T08:25:23.618Z,7.00
2019-04-25T08:27:55.219Z,6.87
2019-04-25T08:30:25.762Z,6.67
2019-04-25T08:32:56.527Z,6.50
2019-04-25T08:35:26.938Z,7.07
2019-04-25T08:37:57.958Z,6.97
2019-04-25T08:40:32.376Z,6.73
2019-04-25T08:43:03.524Z,7.00
2019-04-25T08:45:35.690Z,6.77
2019-04-25T08:48:06.814Z,6.40
2019-04-25T08:50:58.610Z,6.40
2019-04-25T08:53:35.624Z,6.70
2019-04-25T08:56:15.172Z,7.57
2019-04-25T08:59:07.817Z,7.07
2019-04-25T09:01:57.787Z,7.27
2019-04-25T09:04:49.980Z,6.87
2019-04-25T09:07:20.664Z,6.40
2019-04-25T09:09:51.569Z,6.93
2019-04-25T09:12:22.051Z,6.77
2019-04-25T09:14:54.083Z,7.07
2019-04-25T09:17:24.827Z,6.13
2019-04-25T09:19:55.301Z,6.60
2019-04-25T09:22:25.795Z,6.30
2019-04-25T09:24:56.473Z,6.40
2019-04-25T09:27:26.894Z,6.33
2019-04-25T09:29:57.373Z,6.00
2019-04-25T09:32:27.966Z,6.50
2019-04-25T09:34:58.375Z,6.77
2019-04-25T09:37:28.847Z,6.93
2019-04-25T09:40:18.279Z,6.50
2019-04-25T09:42:48.799Z,5.77
2019-04-25T09:45:43.892Z,6.03
2019-04-25T09:48:24.015Z,5.67
2019-04-25T09:51:19.280Z,6.30
2019-04-25T09:53:54.188Z,6.77
2019-04-25T09:56:33.801Z,6.00
2019-04-25T09:59:10.515Z,6.10
2019-04-25T10:01:43.979Z,6.50
2019-04-25T10:04:14.649Z,5.90
2019-04-25T10:06:46.026Z,6.07
2019-04-25T10:09:16.811Z,5.73
2019-04-25T10:11:47.522Z,5.53
2019-04-25T10:15:11.456Z,5.63
2019-04-25T10:17:43.537Z,5.53
2019-04-25T10:20:16.317Z,6.27
2019-04-25T10:22:47.116Z,5.17
2019-04-25T10:25:18.760Z,6.00
2019-04-25T10:27:49.420Z,5.57
2019-04-25T10:30:23.517Z,5.87
2019-04-25T10:32:54.629Z,5.80
2019-04-25T10:35:24.757Z,5.30
2019-04-25T10:37:55.498Z,7.43
2019-04-25T10:40:28.049Z,5.17
2019-04-25T10:42:58.829Z,6.23
2019-04-25T10:45:29.327Z,5.53
2019-04-25T10:47:59.906Z,4.90
2019-04-25T10:50:30.506Z,6.73
2019-04-25T10:53:01.175Z,5.40
2019-04-25T10:55:31.927Z,5.70
2019-04-25T10:58:03.879Z,7.60
2019-04-25T11:00:37.543Z,5.77
2019-04-25T11:03:26.527Z,5.70
2019-04-25T11:05:57.362Z,5.27
2019-04-25T11:08:28.017Z,5.37
2019-04-25T11:10:59.685Z,5.70
2019-04-25T11:13:30.540Z,6.30
2019-04-25T11:16:01.275Z,5.67
2019-04-25T11:18:33.905Z,5.77
2019-04-25T11:21:06.105Z,5.47
2019-04-25T11:23:36.839Z,5.33
2019-04-25T11:26:07.323Z,5.30
2019-04-25T11:28:38.342Z,5.50
2019-04-25T11:31:11.803Z,7.00
2019-04-25T11:33:43.868Z,7.60
2019-04-25T11:36:15.911Z,6.40
2019-04-25T11:39:19.256Z,5.67
2019-04-25T11:41:49.870Z,5.33
2019-04-25T11:44:20.491Z,5.80
2019-04-25T11:46:50.936Z,5.20
2019-04-25T11:49:21.484Z,5.17
2019-04-25T11:51:52.442Z,5.10
2019-04-25T11:54:24.279Z,5.73
2019-04-25T11:56:56.455Z,5.90
2019-04-25T11:59:27.063Z,5.67
2019-04-25T12:01:57.718Z,5.27
2019-04-25T12:04:28.154Z,5.27
2019-04-25T12:06:58.607Z,5.17
2019-04-25T12:09:29.279Z,5.90
2019-04-25T12:11:59.920Z,5.77
2019-04-25T12:14:31.685Z,5.63
2019-04-25T12:17:03.757Z,6.50
2019-04-25T12:19:37.902Z,5.97
2019-04-25T12:22:07.354Z,5.27
2019-04-25T12:24:37.877Z,5.87
2019-04-25T12:27:08.677Z,5.67
2019-04-25T12:29:39.205Z,9.03
2019-04-25T12:32:10.190Z,5.40
2019-04-25T12:34:41.681Z,5.17
2019-04-25T12:37:12.541Z,4.90
2019-04-25T12:39:42.927Z,4.83
2019-04-25T12:42:14.635Z,4.97
2019-04-25T12:45:04.190Z,5.05
2019-04-25T12:47:36.305Z,4.87
2019-04-25T12:50:06.952Z,5.08
2019-04-25T12:52:37.371Z,5.10
2019-04-25T12:55:09.619Z,5.22
2019-04-25T12:57:40.139Z,5.45
2019-04-25T13:00:14.037Z,5.47
2019-04-25T13:02:44.956Z,5.78
2019-04-25T13:05:15.734Z,5.28
2019-04-25T13:07:46.353Z,6.05
2019-04-25T13:10:17.366Z,5.12
2019-04-25T13:12:47.854Z,5.35
2019-04-25T13:15:18.552Z,5.47
2019-04-25T13:17:49.040Z,5.72
2019-04-25T13:20:19.582Z,5.05
2019-04-25T13:22:50.150Z,5.30
2019-04-25T13:25:23.858Z,5.92
2019-04-25T13:28:12.275Z,5.30
2019-04-25T13:31:10.372Z,5.95
2019-04-25T13:33:57.356Z,5.87
2019-04-25T13:36:28.336Z,5.70
2019-04-25T13:38:58.771Z,5.90
2019-04-25T13:41:29.649Z,5.60
2019-04-25T13:44:00.901Z,5.75
2019-04-25T13:46:32.622Z,5.70
2019-04-25T13:49:04.242Z,5.97
2019-04-25T13:51:35.075Z,6.47
2019-04-25T13:54:05.865Z,6.40
2019-04-25T13:56:40.370Z,6.60
2019-04-25T13:59:09.487Z,6.25
2019-04-25T14:01:41.215Z,6.30
2019-04-25T14:04:12.105Z,5.28
2019-04-25T14:06:42.635Z,5.83
2019-04-25T14:09:18.143Z,5.37
2019-04-25T14:11:49.289Z,5.28
2019-04-25T14:14:20.369Z,6.08
2019-04-25T14:17:06.653Z,6.53
2019-04-25T14:19:55.508Z,5.97
2019-04-25T14:22:27.485Z,5.58
2019-04-25T14:24:58.303Z,7.00
2019-04-25T14:27:30.106Z,5.80
2019-04-25T14:30:03.749Z,6.20
2019-04-25T14:32:36.528Z,5.30
2019-04-25T14:35:07.192Z,5.58
2019-04-25T14:37:39.601Z,5.62
2019-04-25T14:40:13.923Z,5.60
2019-04-25T14:42:45.052Z,5.65
2019-04-25T14:45:16.122Z,5.17
2019-04-25T14:47:47.054Z,6.50
2019-04-25T14:50:18.020Z,6.03
2019-04-25T14:52:49.384Z,5.20
2019-04-25T14:55:32.581Z,5.83
2019-04-25T14:58:04.295Z,6.20
2019-04-25T15:00:39.340Z,6.30
2019-04-25T15:03:10.406Z,6.00
2019-04-25T15:05:43.201Z,5.97
2019-04-25T15:08:13.903Z,5.55
2019-04-25T15:10:44.637Z,6.05
2019-04-25T15:13:15.091Z,6.75
2019-04-25T15:15:45.832Z,7.07
2019-04-25T15:18:16.828Z,7.78
2019-04-25T15:20:47.817Z,6.78
2019-04-25T15:23:18.797Z,6.20
2019-04-25T15:25:49.413Z,8.53
2019-04-25T15:28:20.041Z,6.17
2019-04-25T15:30:51.173Z,6.70
2019-04-25T15:33:24.170Z,6.30
2019-04-25T15:36:07.988Z,6.23
2019-04-25T15:38:47.767Z,6.50
2019-04-25T15:41:29.285Z,6.53
2019-04-25T15:44:18.961Z,6.93
2019-04-25T15:46:51.405Z,5.87
2019-04-25T15:49:21.949Z,7.00
2019-04-25T15:51:52.778Z,5.93
2019-04-25T15:54:23.451Z,6.43
2019-04-25T15:56:53.975Z,6.07
2019-04-25T15:59:25.112Z,6.17
2019-04-25T16:02:07.475Z,5.73
2019-04-25T16:04:28.255Z,6.17
2019-04-25T16:06:59.077Z,5.90
2019-04-25T16:09:29.847Z,5.70
2019-04-25T16:12:00.926Z,5.63
2019-04-25T16:14:31.878Z,5.73
2019-04-25T16:17:02.616Z,5.50
2019-04-25T16:19:34.705Z,5.47
2019-04-25T16:22:05.575Z,5.50
2019-04-25T16:24:36.694Z,6.10
2019-04-25T16:27:09.245Z,7.00
2019-04-25T16:29:40.658Z,6.83
2019-04-25T16:32:20.426Z,5.63
2019-04-25T16:34:46.857Z,5.33
2019-04-25T16:37:17.575Z,5.80
2019-04-25T16:39:48.119Z,6.40
2019-04-25T16:42:18.918Z,5.43
2019-04-25T16:44:50.000Z,5.97
2019-04-25T16:47:22.615Z,6.77
2019-04-25T16:49:53.418Z,5.77
2019-04-25T16:52:25.089Z,5.47
2019-04-25T16:54:55.687Z,5.90
2019-04-25T16:57:26.693Z,6.03
2019-04-25T16:59:57.165Z,6.00
2019-04-25T17:02:35.293Z,6.83
2019-04-25T17:05:04.093Z,6.17
2019-04-25T17:07:34.780Z,5.97
2019-04-25T17:10:07.055Z,6.23
2019-04-25T17:12:38.471Z,5.93
2019-04-25T17:15:19.407Z,6.20
2019-04-25T17:17:57.749Z,7.10
2019-04-25T17:20:31.004Z,6.53
2019-04-25T17:23:01.785Z,6.63
2019-04-25T17:25:32.429Z,6.90
2019-04-25T17:28:03.216Z,6.17
2019-04-25T17:30:35.396Z,6.60
2019-04-25T17:33:25.902Z,6.53
2019-04-25T17:36:13.590Z,6.30
2019-04-25T17:38:47.808Z,6.87
2019-04-25T17:41:18.341Z,6.27
2019-04-25T17:43:49.326Z,6.30
2019-04-25T17:46:21.716Z,7.37
2019-04-25T17:48:52.418Z,7.30
2019-04-25T17:51:23.490Z,8.00
2019-04-25T17:53:54.057Z,7.57
2019-04-25T17:56:38.577Z,7.93
2019-04-25T17:59:10.290Z,7.53
2019-04-25T18:01:42.201Z,7.40
2019-04-25T18:04:12.836Z,7.50
2019-04-25T18:06:44.353Z,7.87
2019-04-25T18:09:15.188Z,7.40
2019-04-25T18:11:46.339Z,7.73
2019-04-25T18:14:17.507Z,10.03
2019-04-25T18:16:49.343Z,8.07
2019-04-25T18:19:51.367Z,7.10
2019-04-25T18:22:46.220Z,6.97
2019-04-25T18:25:31.526Z,7.73
2019-04-25T18:28:27.162Z,7.40
2019-04-25T18:30:58.709Z,6.90
2019-04-25T18:33:30.260Z,7.07
2019-04-25T18:36:22.827Z,7.90
2019-04-25T18:39:04.055Z,7.47
2019-04-25T18:41:41.834Z,7.97
2019-04-25T18:44:12.718Z,8.43
2019-04-25T18:46:45.147Z,8.47
2019-04-25T18:49:16.129Z,8.97
2019-04-25T18:51:56.680Z,8.03
2019-04-25T18:54:47.678Z,8.27
2019-04-25T18:57:37.532Z,8.67
2019-04-25T19:00:26.664Z,8.80
2019-04-25T19:03:28.436Z,9.70
2019-04-25T19:06:01.913Z,8.73
2019-04-25T19:08:33.844Z,9.47
2019-04-25T19:11:06.079Z,10.57
2019-04-25T19:13:36.965Z,9.90
2019-04-25T19:16:07.889Z,9.47
2019-04-25T19:18:39.018Z,10.57
2019-04-25T19:21:10.662Z,9.73
2019-04-25T19:23:41.816Z,10.27
2019-04-25T19:26:12.480Z,10.30
2019-04-25T19:28:43.534Z,9.87
2019-04-25T19:31:14.208Z,10.07
2019-04-25T19:33:45.470Z,9.73
2019-04-25T19:36:16.314Z,10.43
2019-04-25T19:38:47.962Z,11.73
2019-04-25T19:41:43.511Z,10.77
2019-04-25T19:44:21.177Z,11.23
2019-04-25T19:46:52.421Z,10.53
2019-04-25T19:49:23.242Z,11.57
2019-04-25T19:51:54.956Z,10.67
2019-04-25T19:54:25.816Z,10.80
2019-04-25T19:56:56.500Z,10.00
2019-04-25T19:59:29.694Z,10.30
2019-04-25T20:02:05.919Z,10.47
2019-04-25T20:05:07.648Z,10.70
2019-04-25T20:07:45.516Z,10.93
2019-04-25T20:10:44.034Z,10.37
2019-04-25T20:13:16.047Z,10.20
2019-04-25T20:15:47.590Z,10.73
2019-04-25T20:18:18.679Z,10.43
2019-04-25T20:20:50.074Z,11.27
2019-04-25T20:23:20.916Z,11.23
2019-04-25T20:25:52.754Z,12.60
2019-04-25T20:28:23.796Z,12.37
2019-04-25T20:30:54.611Z,11.20
2019-04-25T20:33:25.113Z,12.43
2019-04-25T20:35:55.996Z,12.00
2019-04-25T20:38:26.558Z,13.03
2019-04-25T20:40:57.432Z,12.37
2019-04-25T20:43:28.103Z,10.97
2019-04-25T20:45:58.756Z,12.00
2019-04-25T20:48:29.342Z,14.17
2019-04-25T20:51:00.014Z,12.00
2019-04-25T20:53:30.800Z,11.10
2019-04-25T20:56:01.423Z,11.70
2019-04-25T20:58:32.031Z,10.70
2019-04-25T21:01:03.537Z,11.93
2019-04-25T21:03:34.640Z,11.40
2019-04-25T21:06:10.999Z,11.03
2019-04-25T21:08:42.106Z,11.40
2019-04-25T21:11:12.703Z,11.03
2019-04-25T21:14:01.473Z,10.73
2019-04-25T21:17:10.227Z,10.93
2019-04-25T21:19:43.538Z,11.87
2019-04-25T21:22:14.253Z,11.80
2019-04-25T21:24:46.399Z,10.67
2019-04-25T21:27:16.880Z,12.53
2019-04-25T21:29:47.713Z,12.27
2019-04-25T21:32:20.139Z,11.97
2019-04-25T21:34:50.940Z,11.87
2019-04-25T21:37:22.720Z,11.40
2019-04-25T21:40:18.701Z,12.53
2019-04-25T21:42:53.898Z,11.77
2019-04-25T21:45:25.238Z,12.30
2019-04-25T21:47:55.894Z,11.20
2019-04-25T21:50:27.761Z,11.23
2019-04-25T21:52:59.137Z,11.90
2019-04-25T21:55:29.890Z,12.07
2019-04-25T21:58:01.149Z,12.47
2019-04-25T22:01:00.827Z,10.90
2019-04-25T22:03:33.386Z,12.63
2019-04-25T22:06:05.128Z,12.00
2019-04-25T22:08:37.228Z,12.17
2019-04-25T22:11:08.062Z,12.60
2019-04-25T22:13:39.186Z,11.67
2019-04-25T22:16:10.343Z,11.90
2019-04-25T22:18:41.694Z,12.33
2019-04-25T22:21:12.729Z,12.63
2019-04-25T22:23:43.781Z,11.67
2019-04-25T22:26:14.381Z,16.40
2019-04-25T22:28:45.398Z,13.70
2019-04-25T22:31:24.971Z,12.67
2019-04-25T22:34:08.942Z,13.27
2019-04-25T22:36:39.816Z,12.17
2019-04-25T22:39:14.267Z,13.27
2019-04-25T22:41:47.435Z,12.47
2019-04-25T22:44:21.371Z,13.20
2019-04-25T22:46:52.563Z,13.33
2019-04-25T22:49:23.187Z,13.27
2019-04-25T22:51:53.709Z,12.07
2019-04-25T22:54:25.875Z,13.17
2019-04-25T22:56:56.577Z,16.07
2019-04-25T22:59:27.653Z,13.83
2019-04-25T23:02:17.590Z,13.77
2019-04-25T23:05:15.040Z,13.53
2019-04-25T23:07:43.130Z,13.03
2019-04-25T23:10:14.515Z,13.97
2019-04-25T23:12:45.175Z,12.90
2019-04-25T23:15:15.830Z,12.73
2019-04-25T23:17:46.630Z,13.23
2019-04-25T23:20:17.430Z,12.87
2019-04-25T23:22:48.406Z,26.33
2019-04-25T23:25:22.680Z,12.97
2019-04-25T23:28:06.149Z,12.97
2019-04-25T23:30:56.434Z,13.07
2019-04-25T23:33:27.047Z,12.63
2019-04-25T23:35:57.840Z,13.17
2019-04-25T23:38:28.596Z,12.97
2019-04-25T23:40:59.340Z,13.43
2019-04-25T23:43:30.582Z,12.67
2019-04-25T23:46:01.078Z,12.97
2019-04-25T23:48:32.047Z,13.37
2019-04-25T23:51:02.697Z,13.23
2019-04-25T23:53:33.763Z,12.27
2019-04-25T23:56:04.520Z,12.30
2019-04-25T23:58:35.145Z,13.23
